Home > Products > Valid Products > MTR

000
SAUS44 KLZK 211154
MTRMWT
METAR KMWT 211153Z AUTO 13003KT 5SM BR OVC100 15/14 A3003 RMK AO2
SLP161 60001 70001 T01500144 10167 20150 53008





000
SAUS44 KLZK 211054
MTRMWT
METAR KMWT 211053Z AUTO 00000KT 8SM FEW080 FEW090 BKN110 16/14 A3002
RMK AO2 RAB32E48 SLP159 P0000 T01560144





000
SAUS44 KLZK 210954
MTRMWT
METAR KMWT 210953Z AUTO 13004KT 6SM BR SCT110 16/14 A2999 RMK AO2
SLP146 T01560144





000
SAUS44 KLZK 210854
MTRMWT
METAR KMWT 210853Z AUTO 00000KT 7SM BKN110 16/15 A3000 RMK AO2 RAE19
SLP151 P0001 60001 T01560150 58014





000
SAUS44 KLZK 210754
MTRMWT
METAR KMWT 210753Z AUTO 00000KT 9SM -RA OVC100 16/15 A3001 RMK AO2
RAB0659E16B45 SLP155 P0000 T01610150





000
SAUS44 KLZK 210654
MTRMWT
METAR KMWT 210653Z AUTO 00000KT 9SM OVC100 16/15 A3003 RMK AO2 RAE04
SLP164 P0000 T01610150





000
SAUS44 KLZK 210554
MTRMWT
METAR KMWT 210553Z AUTO 00000KT 7SM -RA BKN090 OVC100 17/15 A3004
RMK AO2 RAB38 SLP167 P0000 60000 T01670150 10233 20167 402500100
58010





000
SAUS44 KLZK 210454
MTRMWT
METAR KMWT 210453Z AUTO 00000KT 10SM FEW075 BKN110 17/14 A3006 RMK
AO2 SLP171 T01720139





000
SAUS44 KLZK 210354
MTRMWT
METAR KMWT 210353Z AUTO 00000KT 10SM FEW100 17/14 A3006 RMK AO2
SLP173 T01720144





000
SAUS44 KLZK 210254
MTRMWT
METAR KMWT 210253Z AUTO 00000KT 10SM BKN110 18/13 A3007 RMK AO2
SLP178 T01830133 53004





000
SAUS44 KLZK 210154
MTRMWT
METAR KMWT 210153Z AUTO 00000KT 10SM CLR 19/13 A3006 RMK AO2 SLP176
T01890133





000
SAUS44 KLZK 210054
MTRMWT
METAR KMWT 210053Z AUTO 00000KT 10SM FEW070 22/12 A3006 RMK AO2
SLP174 T02170117





000
SAUS44 KLZK 202354
MTRMWT
METAR KMWT 202353Z AUTO 00000KT 10SM FEW065 23/12 A3006 RMK AO2
SLP176 T02330122 10250 20228 55008





000
SAUS44 KLZK 202254
MTRMWT
METAR KMWT 202253Z AUTO 15005KT 10SM SCT065 23/12 A3005 RMK AO2
SLP171 T02330117





000
SAUS44 KLZK 202154
MTRMWT
METAR KMWT 202153Z AUTO 13007KT 10SM OVC065 25/12 A3006 RMK AO2
SLP175 T02500117





000
SAUS44 KLZK 202054
MTRMWT
METAR KMWT 202053Z AUTO VRB04KT 10SM BKN065 25/12 A3008 RMK AO2
SLP183 T02500117 58020





000
SAUS44 KLZK 201954
MTRMWT
METAR KMWT 201953Z AUTO VRB05KT 10SM BKN065 24/11 A3012 RMK AO2
SLP194 T02440106





000
SAUS44 KLZK 201854
MTRMWT
METAR KMWT 201853Z AUTO VRB05KT 10SM BKN060 24/11 A3012 RMK AO2
SLP196 T02390111





000
SAUS44 KLZK 201754
MTRMWT
METAR KMWT 201753Z AUTO VRB04KT 10SM BKN060 23/11 A3014 RMK AO2
SLP204 T02280111 10239 20106 57012





000
SAUS44 KLZK 201653
MTRMWT
METAR KMWT 201653Z AUTO VRB05KT 10SM BKN060 23/11 A3016 RMK AO2
SLP208 T02330111





000
SAUS44 KLZK 201553
MTRMWT
METAR KMWT 201553Z AUTO 15007KT 130V190 10SM CLR 23/12 A3016 RMK AO2
SLP209 T02330122





000
SAUS44 KLZK 201453
MTRMWT
METAR KMWT 201453Z AUTO 00000KT 10SM OVC060 18/13 A3018 RMK AO2
SLP216 T01780128 51005





000
SAUS44 KLZK 201353
MTRMWT
METAR KMWT 201353Z AUTO 00000KT 10SM SCT060 16/12 A3017 RMK AO2
SLP215 T01560122





000
SAUS44 KLZK 201253
MTRMWT
METAR KMWT 201253Z AUTO 00000KT 7SM BKN060 12/11 A3018 RMK AO2
SLP217 T01170106





000
SAUS44 KLZK 201153
MTRMWT
METAR KMWT 201153Z AUTO 00000KT 5SM BR BKN055 11/09 A3016 RMK AO2
SLP211 T01060094 10117 20100 53008





000
SAUS44 KLZK 201053
MTRMWT
METAR KMWT 201053Z AUTO 00000KT 8SM OVC055 12/11 A3014 RMK AO2
SLP202 T01170106





000
SAUS44 KLZK 200953
MTRMWT
METAR KMWT 200953Z AUTO 00000KT 7SM OVC055 11/10 A3014 RMK AO2
SLP203 T01060100





000
SAUS44 KLZK 200853
MTRMWT
METAR KMWT 200853Z AUTO 00000KT 5SM BR CLR 10/09 A3014 RMK AO2
SLP202 T01000089 57001





000
SAUS44 KLZK 200753
MTRMWT
METAR KMWT 200753Z AUTO 00000KT 6SM BR CLR 11/10 A3013 RMK AO2
SLP200 T01060100





000
SAUS44 KLZK 200653
MTRMWT
METAR KMWT 200653Z AUTO 00000KT 7SM CLR 11/10 A3015 RMK AO2 SLP205
T01110100





000
SAUS44 KLZK 200553
MTRMWT
METAR KMWT 200553Z AUTO 00000KT 8SM CLR 12/11 A3014 RMK AO2 SLP203
T01170111 10233 20117 402440061 51005





000
SAUS44 KLZK 200453
MTRMWT
METAR KMWT 200453Z AUTO 00000KT 9SM CLR 12/11 A3014 RMK AO2 SLP201
T01220111





000
SAUS44 KLZK 200353
MTRMWT
METAR KMWT 200353Z AUTO 00000KT 10SM CLR 13/12 A3013 RMK AO2 SLP200
T01330117





000
SAUS44 KLZK 200253
MTRMWT
METAR KMWT 200253Z AUTO 00000KT 10SM CLR 15/11 A3013 RMK AO2 SLP199
T01500111 53007





000
SAUS44 KLZK 200153
MTRMWT
METAR KMWT 200153Z AUTO 00000KT 10SM CLR 17/12 A3011 RMK AO2 SLP195
T01670117





000
SAUS44 KLZK 200053
MTRMWT
METAR KMWT 200053Z AUTO 00000KT 10SM CLR 19/12 A3011 RMK AO2 SLP194
T01940117





000
SAUS44 KLZK 192353
MTRMWT
METAR KMWT 192353Z AUTO 00000KT 10SM SCT060 23/11 A3011 RMK AO2
SLP193 T02280111 10244 20222 58005





000
SAUS44 KLZK 192253
MTRMWT
METAR KMWT 192253Z AUTO 00000KT 10SM CLR 23/10 A3011 RMK AO2 SLP194
T02280100





000
SAUS44 KLZK 192153
MTRMWT
METAR KMWT 192153Z AUTO 16005KT 10SM CLR 23/09 A3012 RMK AO2 SLP198
T02280094





000
SAUS44 KLZK 192053
MTRMWT
METAR KMWT 192053Z AUTO VRB04KT 10SM BKN060 24/11 A3012 RMK AO2
SLP198 T02390106 58024





000
SAUS44 KLZK 191953
MTRMWT
METAR KMWT 191953Z AUTO 00000KT 10SM OVC060 23/10 A3015 RMK AO2
SLP208 T02280100





000
SAUS44 KLZK 191853
MTRMWT
METAR KMWT 191853Z AUTO 00000KT 10SM SCT055 23/10 A3017 RMK AO2
SLP213 T02280100





000
SAUS44 KLZK 191753
MTRMWT
METAR KMWT 191753Z AUTO 10SM SCT050 23/10 A3020 RMK AO2 SLP222
T02280100 10233 20067 58007





000
SAUS44 KLZK 191653
MTRMWT
METAR KMWT 191653Z AUTO 24005KT 10SM SCT050 21/10 A3021 RMK AO2
SLP229 T02110100





000
SAUS44 KLZK 191553
MTRMWT
METAR KMWT 191553Z AUTO 00000KT 10SM CLR 21/11 A3022 RMK AO2 SLP231
T02060111





000
SAUS44 KLZK 191453
MTRMWT
METAR KMWT 191453Z AUTO 00000KT 10SM CLR 17/10 A3022 RMK AO2 SLP230
T01670100 51012





000
SAUS44 KLZK 191353
MTRMWT
METAR KMWT 191353Z AUTO 00000KT 10SM CLR 13/09 A3021 RMK AO2 SLP228
T01280089





000
SAUS44 KLZK 191253
MTRMWT
METAR KMWT 191253Z AUTO 00000KT 10SM CLR 09/08 A3020 RMK AO2 SLP225
T00890078





000
SAUS44 KLZK 191153
MTRMWT
METAR KMWT 191153Z AUTO 00000KT 6SM BR CLR 06/06 A3018 RMK AO2
SLP220 T00610056 10100 20061 53007





000
SAUS44 KLZK 191053
MTRMWT
METAR KMWT 191053Z AUTO 00000KT 6SM BR CLR 07/06 A3017 RMK AO2
SLP215 T00670061





000
SAUS44 KLZK 190953
MTRMWT
METAR KMWT 190953Z AUTO 00000KT 7SM CLR 07/07 A3016 RMK AO2 SLP213
T00720067





000
SAUS44 KLZK 190853
MTRMWT
METAR KMWT 190853Z AUTO 00000KT 9SM CLR 08/07 A3016 RMK AO2 SLP211
T00780072 56003





000
SAUS44 KLZK 190753
MTRMWT
METAR KMWT 190753Z AUTO 00000KT 10SM CLR 08/07 A3016 RMK AO2 SLP210
T00830072





000
SAUS44 KLZK 190653
MTRMWT
METAR KMWT 190653Z AUTO 00000KT 10SM CLR 09/08 A3016 RMK AO2 SLP211
T00890078





000
SAUS44 KLZK 190553
MTRMWT
METAR KMWT 190553Z AUTO 00000KT 10SM CLR 10/08 A3017 RMK AO2 SLP213
T01000083 10211 20100 402280061 58003





000
SAUS44 KLZK 190453
MTRMWT
METAR KMWT 190453Z AUTO 00000KT 10SM CLR 11/09 A3018 RMK AO2 SLP218
T01060089





000
SAUS44 KLZK 190353
MTRMWT
METAR KMWT 190353Z AUTO 00000KT 10SM CLR 12/09 A3019 RMK AO2 SLP220
T01170094





000
SAUS44 KLZK 190253
MTRMWT
METAR KMWT 190253Z AUTO 00000KT 10SM CLR 14/09 A3018 RMK AO2 SLP217
T01390089 53019





000
SAUS44 KLZK 190153
MTRMWT
METAR KMWT 190153Z AUTO 00000KT 10SM CLR 16/09 A3015 RMK AO2 SLP208
T01560089





000
SAUS44 KLZK 190053
MTRMWT
METAR KMWT 190053Z AUTO 00000KT 10SM CLR 18/08 A3013 RMK AO2 SLP202
T01780078





000
SAUS44 KLZK 182353
MTRMWT
METAR KMWT 182353Z AUTO 00000KT 10SM CLR 22/07 A3012 RMK AO2 SLP198
T02170072 10228 20206 56008





000
SAUS44 KLZK 182253
MTRMWT
METAR KMWT 182253Z AUTO VRB03KT 10SM CLR 22/07 A3012 RMK AO2 SLP199
T02220072





000
SAUS44 KLZK 182153
MTRMWT
METAR KMWT 182153Z AUTO VRB04KT 10SM CLR 23/07 A3013 RMK AO2 SLP201
T02280067





000
SAUS44 KLZK 182053
MTRMWT
METAR KMWT 182053Z AUTO VRB05KT 10SM FEW060 22/08 A3015 RMK AO2
SLP206 T02220078 58018





000
SAUS44 KLZK 181953
MTRMWT
METAR KMWT 181953Z AUTO 12006KT 10SM CLR 22/07 A3017 RMK AO2 SLP213
T02220072





000
SAUS44 KLZK 181853
MTRMWT
METAR KMWT 181853Z AUTO 13007KT 10SM CLR 22/06 A3019 RMK AO2 SLP219
T02170061





000
SAUS44 KLZK 181753
MTRMWT
METAR KMWT 181753Z AUTO VRB03KT 10SM CLR 21/06 A3020 RMK AO2 SLP225
T02060056 10211 20061 58012





000
SAUS44 KLZK 181653
MTRMWT
METAR KMWT 181653Z AUTO 00000KT 10SM CLR 21/05 A3022 RMK AO2 SLP232
T02060050





000
SAUS44 KLZK 181553
MTRMWT
METAR KMWT 181553Z AUTO VRB05KT 10SM CLR 18/09 A3024 RMK AO2 SLP237
T01780089





000
SAUS44 KLZK 181453
MTRMWT
METAR KMWT 181453Z AUTO 00000KT 10SM CLR 16/09 A3024 RMK AO2 SLP238
T01610094 51010





000
SAUS44 KLZK 181353
MTRMWT
METAR KMWT 181353Z AUTO 00000KT 10SM CLR 12/08 A3023 RMK AO2 SLP236
T01220078





000
SAUS44 KLZK 181253
MTRMWT
METAR KMWT 181253Z AUTO 00000KT 10SM CLR 08/07 A3023 RMK AO2 SLP237
T00780067





    US Dept of Commerce
    National Oceanic and Atmospheric Administration
    National Weather Service
    1325 East West Highway
    Silver Spring, MD 20910
    Page Author: NWS Internet Services Team
Disclaimer
Information Quality
Credits
Glossary
Privacy Policy
Freedom of Information Act (FOIA)
About Us
Career Opportunities